Time;durP1;ratioP1;P1;durP2;ratioP2;P2;SDS_P1;SDS_P2;PMS_P1;PMS_P2;Temp;Humidity;BMP_temperature;BMP_pressure;BME280_temperature;BME280_humidity;BME280_pressure;Samples;Min_cycle;Max_cycle;Signal;HPM_P1;HPM_P2
2022/03/08 00:00:18;;;;;;;9.70;4.75;;;;;;;;;;4993391;28;20133;-72
2022/03/08 00:02:45;;;;;;;7.25;4.70;;;;;;;;;;4993637;28;20070;-72
2022/03/08 00:05:13;;;;;;;7.47;4.82;;;;;;;;;;4992285;28;20070;-72
2022/03/08 00:07:42;;;;;;;8.95;5.05;;;;;;;;;;4993464;28;20046;-74
2022/03/08 00:10:10;;;;;;;7.80;4.82;;;;;;;;;;4993141;28;20156;-73
2022/03/08 00:12:38;;;;;;;9.65;5.05;;;;;;;;;;4993529;28;20044;-69
2022/03/08 00:15:09;;;;;;;6.28;4.43;;;;;;;;;;4993359;28;20368;-72
2022/03/08 00:17:38;;;;;;;11.20;4.68;;;;;;;;;;4993320;28;20038;-74
2022/03/08 00:20:07;;;;;;;9.65;4.95;;;;;;;;;;4992895;28;20046;-72
2022/03/08 00:22:35;;;;;;;9.73;4.85;;;;;;;;;;4993040;28;20104;-72
2022/03/08 00:25:03;;;;;;;6.68;4.25;;;;;;;;;;4993289;28;20047;-74
2022/03/08 00:27:31;;;;;;;10.65;4.80;;;;;;;;;;4993282;28;20113;-74
2022/03/08 00:29:59;;;;;;;6.25;4.70;;;;;;;;;;4992016;28;20134;-73
2022/03/08 00:32:27;;;;;;;14.82;4.80;;;;;;;;;;4991688;28;20058;-69
2022/03/08 00:34:55;;;;;;;9.82;5.40;;;;;;;;;;4992829;28;20141;-73
2022/03/08 00:37:22;;;;;;;9.32;4.80;;;;;;;;;;4993172;28;20061;-69
2022/03/08 00:39:50;;;;;;;7.30;4.80;;;;;;;;;;4991808;28;20085;-73
2022/03/08 00:42:18;;;;;;;7.45;4.78;;;;;;;;;;5007274;28;20037;-74
2022/03/08 00:44:45;;;;;;;8.25;4.20;;;;;;;;;;5012553;28;20054;-75
2022/03/08 00:47:13;;;;;;;10.38;4.78;;;;;;;;;;5012385;28;20045;-72
2022/03/08 00:49:40;;;;;;;6.63;4.60;;;;;;;;;;5012458;28;20065;-73
2022/03/08 00:52:09;;;;;;;9.07;4.60;;;;;;;;;;5010044;28;20133;-71
2022/03/08 00:54:38;;;;;;;7.85;4.97;;;;;;;;;;5011278;28;20423;-71
2022/03/08 00:57:06;;;;;;;8.30;4.70;;;;;;;;;;5011243;28;20057;-73
2022/03/08 00:59:34;;;;;;;7.55;5.13;;;;;;;;;;5012402;28;20497;-70
2022/03/08 01:02:03;;;;;;;11.27;4.68;;;;;;;;;;5013901;28;20485;-72
2022/03/08 01:04:31;;;;;;;8.20;4.82;;;;;;;;;;5016738;28;20575;-70
2022/03/08 01:07:01;;;;;;;8.10;5.22;;;;;;;;;;5015678;28;20048;-74
2022/03/08 01:09:29;;;;;;;11.57;4.85;;;;;;;;;;5016405;28;20125;-68
2022/03/08 01:11:58;;;;;;;10.00;5.30;;;;;;;;;;5016831;28;20041;-70
2022/03/08 01:14:25;;;;;;;5.78;4.70;;;;;;;;;;5015192;28;20046;-69
2022/03/08 01:16:53;;;;;;;6.88;5.03;;;;;;;;;;5015456;28;20132;-72
2022/03/08 01:19:21;;;;;;;8.48;4.53;;;;;;;;;;5016582;28;20691;-71
2022/03/08 01:21:48;;;;;;;8.52;5.07;;;;;;;;;;5014941;28;20042;-71
2022/03/08 01:24:16;;;;;;;7.82;4.47;;;;;;;;;;5016393;28;20394;-68
2022/03/08 01:26:44;;;;;;;6.53;4.95;;;;;;;;;;5016402;28;20050;-71
2022/03/08 01:29:12;;;;;;;9.73;5.57;;;;;;;;;;5016423;28;20038;-73
2022/03/08 01:31:40;;;;;;;9.85;5.22;;;;;;;;;;5015127;28;20069;-73
2022/03/08 01:34:07;;;;;;;10.75;5.55;;;;;;;;;;5014647;28;20132;-68
2022/03/08 01:36:35;;;;;;;9.32;5.18;;;;;;;;;;5016264;28;20076;-71
2022/03/08 01:39:04;;;;;;;7.80;4.78;;;;;;;;;;5016145;28;20038;-68
2022/03/08 01:41:32;;;;;;;7.30;5.22;;;;;;;;;;5014857;28;20389;-72
2022/03/08 01:43:59;;;;;;;10.70;5.30;;;;;;;;;;5016159;28;20098;-72
2022/03/08 01:46:30;;;;;;;10.98;5.68;;;;;;;;;;5014350;28;20061;-72
2022/03/08 01:48:57;;;;;;;10.52;4.97;;;;;;;;;;5016098;28;20485;-73
2022/03/08 01:51:26;;;;;;;8.68;5.20;;;;;;;;;;5014764;28;20041;-68
2022/03/08 01:53:54;;;;;;;9.48;5.28;;;;;;;;;;5015677;28;20060;-73
2022/03/08 01:56:22;;;;;;;8.40;5.22;;;;;;;;;;5016282;28;20069;-74
2022/03/08 01:58:49;;;;;;;8.45;5.05;;;;;;;;;;5014940;28;20493;-68
2022/03/08 02:01:19;;;;;;;8.07;5.00;;;;;;;;;;5014402;28;20145;-71
2022/03/08 02:03:47;;;;;;;7.40;4.75;;;;;;;;;;5014482;28;20042;-69
2022/03/08 02:06:14;;;;;;;8.35;5.15;;;;;;;;;;5015614;28;20405;-71
2022/03/08 02:08:42;;;;;;;8.75;4.90;;;;;;;;;;5015451;28;20073;-68
2022/03/08 02:11:11;;;;;;;7.45;5.13;;;;;;;;;;5013815;28;20046;-71
2022/03/08 02:13:40;;;;;;;6.28;4.97;;;;;;;;;;5014263;28;20493;-71
2022/03/08 02:16:07;;;;;;;9.95;4.60;;;;;;;;;;5013972;28;20049;-73
2022/03/08 02:18:35;;;;;;;8.73;4.85;;;;;;;;;;5015437;28;20054;-71
2022/03/08 02:21:05;;;;;;;7.47;4.80;;;;;;;;;;5015775;28;20439;-72
2022/03/08 02:23:32;;;;;;;8.07;4.68;;;;;;;;;;5013935;28;20069;-73
2022/03/08 02:26:01;;;;;;;7.35;4.35;;;;;;;;;;5015433;28;20041;-73
2022/03/08 02:28:30;;;;;;;6.60;4.68;;;;;;;;;;5015497;28;20049;-73
2022/03/08 02:30:57;;;;;;;7.50;4.80;;;;;;;;;;5013786;28;20046;-73
2022/03/08 02:33:25;;;;;;;9.13;5.57;;;;;;;;;;5014791;28;20073;-68
2022/03/08 02:35:53;;;;;;;9.45;5.40;;;;;;;;;;5014928;28;20052;-70
2022/03/08 02:38:20;;;;;;;8.50;5.32;;;;;;;;;;5015107;28;20054;-73
2022/03/08 02:40:48;;;;;;;7.65;5.43;;;;;;;;;;5014922;28;20042;-70
2022/03/08 02:43:16;;;;;;;6.07;4.72;;;;;;;;;;5014998;28;20054;-71
2022/03/08 02:45:44;;;;;;;9.00;5.20;;;;;;;;;;5014699;28;20042;-71
2022/03/08 02:48:12;;;;;;;8.73;5.05;;;;;;;;;;5013426;28;20548;-73
2022/03/08 02:50:40;;;;;;;8.40;5.10;;;;;;;;;;5013096;28;20045;-72
2022/03/08 02:53:08;;;;;;;10.45;5.45;;;;;;;;;;5013493;28;20416;-69
2022/03/08 02:55:36;;;;;;;7.30;4.70;;;;;;;;;;5014541;28;20416;-70
2022/03/08 02:58:05;;;;;;;7.18;4.75;;;;;;;;;;5014205;28;20034;-71
2022/03/08 03:00:33;;;;;;;5.32;4.32;;;;;;;;;;4997323;28;20054;-68
2022/03/08 03:03:01;;;;;;;8.95;4.43;;;;;;;;;;5013327;28;20493;-72
2022/03/08 03:05:29;;;;;;;6.05;4.78;;;;;;;;;;5013350;28;20124;-72
2022/03/08 03:07:57;;;;;;;5.85;4.28;;;;;;;;;;5014490;28;20386;-72
2022/03/08 03:10:25;;;;;;;6.03;4.15;;;;;;;;;;5012719;28;20049;-72
2022/03/08 03:12:53;;;;;;;7.20;4.25;;;;;;;;;;5012295;28;20072;-72
2022/03/08 03:15:21;;;;;;;7.15;4.13;;;;;;;;;;5014231;28;20128;-68
2022/03/08 03:17:50;;;;;;;6.55;4.45;;;;;;;;;;5014382;28;20052;-69
2022/03/08 03:20:19;;;;;;;8.82;4.60;;;;;;;;;;5013994;28;20141;-74
2022/03/08 03:22:47;;;;;;;6.95;3.92;;;;;;;;;;5014105;28;20049;-71
2022/03/08 03:25:15;;;;;;;8.52;4.50;;;;;;;;;;5014115;28;20034;-70
2022/03/08 03:27:43;;;;;;;7.43;4.35;;;;;;;;;;5014447;28;20046;-73
2022/03/08 03:30:12;;;;;;;9.00;5.15;;;;;;;;;;5012485;28;20133;-72
2022/03/08 03:32:40;;;;;;;6.90;4.70;;;;;;;;;;5012854;28;20049;-68
2022/03/08 03:35:08;;;;;;;5.97;4.40;;;;;;;;;;5012452;28;20050;-71
2022/03/08 03:37:36;;;;;;;11.18;5.25;;;;;;;;;;5013817;28;20400;-73
2022/03/08 03:40:07;;;;;;;8.73;5.18;;;;;;;;;;5013653;28;20141;-71
2022/03/08 03:42:34;;;;;;;7.43;5.00;;;;;;;;;;5012665;28;20405;-72
2022/03/08 03:45:03;;;;;;;7.07;4.82;;;;;;;;;;5013380;28;20078;-72
2022/03/08 03:47:30;;;;;;;11.15;4.78;;;;;;;;;;5013359;28;20045;-70
2022/03/08 03:49:58;;;;;;;11.20;5.28;;;;;;;;;;5013575;28;20050;-68
2022/03/08 03:52:25;;;;;;;5.97;4.35;;;;;;;;;;5012172;28;20057;-68
2022/03/08 03:54:53;;;;;;;9.52;4.50;;;;;;;;;;5013591;28;20140;-72
2022/03/08 03:57:23;;;;;;;6.63;4.25;;;;;;;;;;5013572;28;20041;-68
2022/03/08 03:59:51;;;;;;;6.38;4.47;;;;;;;;;;5013131;28;20038;-73
2022/03/08 04:02:20;;;;;;;9.07;4.70;;;;;;;;;;5013337;28;20038;-68
2022/03/08 04:04:48;;;;;;;8.38;4.90;;;;;;;;;;5013267;28;20397;-70
2022/03/08 04:07:16;;;;;;;8.43;4.40;;;;;;;;;;5013448;28;20129;-71
2022/03/08 04:09:45;;;;;;;6.95;4.32;;;;;;;;;;5012766;28;20038;-73
2022/03/08 04:12:13;;;;;;;5.68;4.47;;;;;;;;;;5013209;28;20073;-68
2022/03/08 04:14:40;;;;;;;6.10;4.40;;;;;;;;;;5013314;28;20049;-68
2022/03/08 04:17:08;;;;;;;6.13;4.53;;;;;;;;;;5013160;28;20046;-71
2022/03/08 04:19:37;;;;;;;6.95;4.50;;;;;;;;;;5013060;28;20058;-71
2022/03/08 04:22:04;;;;;;;8.65;5.60;;;;;;;;;;5012792;28;20069;-73
2022/03/08 04:24:32;;;;;;;8.73;5.13;;;;;;;;;;5013330;28;20066;-72
2022/03/08 04:27:01;;;;;;;10.18;5.10;;;;;;;;;;5013126;28;20061;-70
2022/03/08 04:29:29;;;;;;;7.10;5.05;;;;;;;;;;5013169;28;20474;-68
2022/03/08 04:31:57;;;;;;;9.95;5.72;;;;;;;;;;5013019;28;20749;-68
2022/03/08 04:34:25;;;;;;;9.45;5.75;;;;;;;;;;5012748;28;20046;-73
2022/03/08 04:36:52;;;;;;;8.52;5.22;;;;;;;;;;5012431;28;20065;-68
2022/03/08 04:39:20;;;;;;;8.18;4.90;;;;;;;;;;5012914;28;20045;-71
2022/03/08 04:41:47;;;;;;;8.05;4.90;;;;;;;;;;5012916;28;20050;-74
2022/03/08 04:44:17;;;;;;;11.27;5.43;;;;;;;;;;5011456;28;20113;-71
2022/03/08 04:46:50;;;;;;;8.27;4.95;;;;;;;;;;5012522;28;20042;-73
2022/03/08 04:49:18;;;;;;;9.23;5.10;;;;;;;;;;5011542;28;20069;-71
2022/03/08 04:51:46;;;;;;;9.32;5.20;;;;;;;;;;5012607;28;20129;-68
2022/03/08 04:54:13;;;;;;;8.63;5.43;;;;;;;;;;5011544;28;20054;-73
2022/03/08 04:56:41;;;;;;;7.10;5.22;;;;;;;;;;5012803;28;20404;-68
2022/03/08 04:59:09;;;;;;;6.38;4.97;;;;;;;;;;5012413;28;20155;-71
2022/03/08 05:01:37;;;;;;;6.68;5.00;;;;;;;;;;5012811;28;20057;-71
2022/03/08 05:04:07;;;;;;;7.60;5.10;;;;;;;;;;5012969;28;20105;-69
2022/03/08 05:06:34;;;;;;;8.90;5.45;;;;;;;;;;5012595;28;20112;-72
2022/03/08 05:09:03;;;;;;;9.77;5.10;;;;;;;;;;5011447;28;20046;-71
2022/03/08 05:11:31;;;;;;;10.10;5.38;;;;;;;;;;5011184;28;20060;-68
2022/03/08 05:14:04;;;;;;;11.43;6.35;;;;;;;;;;5012577;28;20464;-68
2022/03/08 05:16:32;;;;;;;10.10;5.78;;;;;;;;;;5013023;28;20069;-71
2022/03/08 05:18:59;;;;;;;9.50;5.78;;;;;;;;;;5012606;28;20104;-73
2022/03/08 05:21:27;;;;;;;8.98;5.22;;;;;;;;;;5012903;28;20042;-68
2022/03/08 05:23:55;;;;;;;10.60;5.68;;;;;;;;;;5012316;28;20448;-72
2022/03/08 05:26:23;;;;;;;7.90;5.07;;;;;;;;;;5012446;28;20034;-74
2022/03/08 05:28:50;;;;;;;7.43;5.07;;;;;;;;;;5012767;28;20122;-74
2022/03/08 05:31:18;;;;;;;10.15;5.65;;;;;;;;;;5012359;28;20042;-73
2022/03/08 05:33:45;;;;;;;7.80;5.20;;;;;;;;;;5011184;28;20054;-68
2022/03/08 05:36:13;;;;;;;9.43;5.25;;;;;;;;;;4994936;28;20441;-74
2022/03/08 05:38:40;;;;;;;12.80;5.57;;;;;;;;;;5012306;28;20052;-68
2022/03/08 05:41:07;;;;;;;9.40;5.93;;;;;;;;;;5012634;28;20393;-74
2022/03/08 05:43:35;;;;;;;7.70;5.38;;;;;;;;;;5010906;28;20042;-74
2022/03/08 05:46:04;;;;;;;9.85;6.00;;;;;;;;;;5011338;28;20092;-68
2022/03/08 05:48:32;;;;;;;12.35;5.40;;;;;;;;;;5014276;28;20497;-74
2022/03/08 05:50:59;;;;;;;11.65;5.53;;;;;;;;;;5015700;28;20069;-71
2022/03/08 05:53:27;;;;;;;7.50;5.50;;;;;;;;;;5016138;28;20057;-71
2022/03/08 05:55:55;;;;;;;10.98;5.20;;;;;;;;;;5015794;28;20045;-69
2022/03/08 05:58:23;;;;;;;9.63;5.20;;;;;;;;;;5015859;28;20044;-71
2022/03/08 06:00:51;;;;;;;8.07;4.90;;;;;;;;;;5014710;28;20419;-74
2022/03/08 06:03:19;;;;;;;6.32;4.45;;;;;;;;;;5016038;28;20465;-72
2022/03/08 06:05:46;;;;;;;6.10;5.25;;;;;;;;;;5015713;28;20038;-72
2022/03/08 06:08:14;;;;;;;13.20;5.18;;;;;;;;;;5016068;28;20049;-75
2022/03/08 06:10:42;;;;;;;8.80;5.53;;;;;;;;;;5012443;28;20034;-74
2022/03/08 06:13:09;;;;;;;8.93;6.00;;;;;;;;;;5011187;28;20136;-74
2022/03/08 06:15:37;;;;;;;11.45;6.10;;;;;;;;;;5005862;28;20569;-75
2022/03/08 06:18:05;;;;;;;11.60;6.18;;;;;;;;;;4994163;28;20406;-75
2022/03/08 06:20:32;;;;;;;13.75;5.97;;;;;;;;;;4995028;28;20056;-70
2022/03/08 06:23:00;;;;;;;7.97;5.75;;;;;;;;;;4995186;28;20118;-73
2022/03/08 06:25:28;;;;;;;7.88;5.60;;;;;;;;;;5002147;28;20046;-71
2022/03/08 06:27:55;;;;;;;8.88;6.03;;;;;;;;;;5013324;28;20060;-70
2022/03/08 06:30:23;;;;;;;7.80;5.35;;;;;;;;;;5012172;28;20523;-69
2022/03/08 06:32:50;;;;;;;9.15;5.65;;;;;;;;;;5013399;28;20041;-69
2022/03/08 06:35:19;;;;;;;11.38;5.82;;;;;;;;;;5014301;28;20404;-74
2022/03/08 06:37:47;;;;;;;7.38;5.55;;;;;;;;;;5014249;28;20050;-69
2022/03/08 06:40:15;;;;;;;9.88;5.60;;;;;;;;;;5014675;28;20034;-74
2022/03/08 06:42:42;;;;;;;10.48;5.88;;;;;;;;;;5014684;28;20046;-76
2022/03/08 06:45:13;;;;;;;11.40;7.65;;;;;;;;;;5029830;28;20038;-73
2022/03/08 06:47:40;;;;;;;11.82;6.90;;;;;;;;;;5014407;28;20048;-73
2022/03/08 06:50:08;;;;;;;7.35;5.20;;;;;;;;;;5014585;28;20056;-70
2022/03/08 06:52:36;;;;;;;6.95;4.43;;;;;;;;;;5014587;28;20132;-70
2022/03/08 06:55:04;;;;;;;5.72;4.10;;;;;;;;;;5014662;28;20081;-69
2022/03/08 06:57:31;;;;;;;7.68;4.60;;;;;;;;;;5013616;28;20199;-69
2022/03/08 06:59:59;;;;;;;4.07;3.65;;;;;;;;;;5012202;28;20050;-73
2022/03/08 07:02:29;;;;;;;7.22;4.10;;;;;;;;;;5013873;28;20042;-73
2022/03/08 07:04:56;;;;;;;5.63;3.83;;;;;;;;;;5014712;28;20041;-69
2022/03/08 07:07:26;;;;;;;7.90;4.57;;;;;;;;;;5014023;28;20351;-74
2022/03/08 07:09:53;;;;;;;4.55;4.15;;;;;;;;;;5014364;28;20049;-73
2022/03/08 07:12:21;;;;;;;4.90;3.92;;;;;;;;;;5013673;28;20045;-74
2022/03/08 07:14:49;;;;;;;4.28;3.60;;;;;;;;;;5013961;28;20358;-74
2022/03/08 07:19:56;;;;;;;6.63;4.72;;;;;;;;;;4990490;28;20078;-76
2022/03/08 07:22:25;;;;;;;7.57;4.70;;;;;;;;;;4993780;28;20045;-70
2022/03/08 07:24:54;;;;;;;6.35;4.53;;;;;;;;;;4993317;28;20050;-73
2022/03/08 07:27:21;;;;;;;6.75;4.03;;;;;;;;;;4993965;28;20042;-74
2022/03/08 07:29:49;;;;;;;10.13;7.22;;;;;;;;;;4992702;28;20043;-73
2022/03/08 07:32:16;;;;;;;5.10;4.40;;;;;;;;;;4993677;28;20117;-73
2022/03/08 07:34:44;;;;;;;5.82;3.60;;;;;;;;;;4992124;28;20054;-74
2022/03/08 07:37:13;;;;;;;4.40;3.88;;;;;;;;;;4993843;28;20516;-74
2022/03/08 07:39:40;;;;;;;4.15;3.72;;;;;;;;;;4993671;28;20046;-74
2022/03/08 07:42:08;;;;;;;4.68;3.65;;;;;;;;;;4992749;28;20061;-71
2022/03/08 07:44:36;;;;;;;8.40;3.83;;;;;;;;;;4975589;28;20046;-78
2022/03/08 07:47:05;;;;;;;5.57;3.25;;;;;;;;;;4990641;28;20034;-74
2022/03/08 07:49:33;;;;;;;3.97;3.40;;;;;;;;;;4991491;28;20105;-76
2022/03/08 07:52:01;;;;;;;5.28;3.70;;;;;;;;;;4993096;28;20034;-71
2022/03/08 07:54:29;;;;;;;5.88;3.80;;;;;;;;;;4993438;28;20498;-71
2022/03/08 07:56:56;;;;;;;4.38;3.97;;;;;;;;;;4991909;28;20509;-71
2022/03/08 07:59:26;;;;;;;5.75;4.30;;;;;;;;;;4992917;28;20034;-72
2022/03/08 08:01:53;;;;;;;8.95;4.60;;;;;;;;;;4989922;28;20049;-78
2022/03/08 08:04:23;;;;;;;7.95;4.50;;;;;;;;;;4993081;28;20058;-72
2022/03/08 08:06:51;;;;;;;8.45;4.63;;;;;;;;;;4991381;28;20042;-76
2022/03/08 08:09:20;;;;;;;4.90;4.38;;;;;;;;;;5008560;28;20468;-70
2022/03/08 08:11:53;;;;;;;40.90;7.40;;;;;;;;;;4992554;28;20069;-73
2022/03/08 08:14:20;;;;;;;5.22;3.97;;;;;;;;;;4992048;28;20050;-73
2022/03/08 08:16:48;;;;;;;6.88;4.07;;;;;;;;;;4991393;28;20506;-73
2022/03/08 08:19:16;;;;;;;7.43;4.30;;;;;;;;;;4992071;28;20485;-78
2022/03/08 08:21:44;;;;;;;13.32;5.03;;;;;;;;;;4993672;28;20050;-78
2022/03/08 08:24:11;;;;;;;4.93;3.85;;;;;;;;;;4991127;28;20034;-72
2022/03/08 08:26:39;;;;;;;6.28;4.20;;;;;;;;;;4990816;28;20072;-75
2022/03/08 08:29:06;;;;;;;5.93;4.45;;;;;;;;;;4992424;28;20035;-73
2022/03/08 08:31:34;;;;;;;8.90;5.40;;;;;;;;;;4991197;28;20046;-72
2022/03/08 08:34:02;;;;;;;5.03;3.80;;;;;;;;;;4993318;28;20456;-72
2022/03/08 08:36:30;;;;;;;7.50;4.20;;;;;;;;;;4992941;28;20042;-77
2022/03/08 08:38:57;;;;;;;6.50;4.40;;;;;;;;;;4992847;28;20401;-76
2022/03/08 08:41:26;;;;;;;7.70;4.80;;;;;;;;;;4992726;28;20042;-71
2022/03/08 08:43:53;;;;;;;4.40;3.67;;;;;;;;;;4992702;28;20117;-75
2022/03/08 08:46:21;;;;;;;5.22;3.50;;;;;;;;;;4991156;28;20030;-71
2022/03/08 08:48:48;;;;;;;5.90;3.70;;;;;;;;;;4991299;28;20093;-71
2022/03/08 08:51:16;;;;;;;5.10;3.88;;;;;;;;;;4992935;28;20177;-75
2022/03/08 08:53:44;;;;;;;7.05;3.85;;;;;;;;;;4991545;28;20074;-77
2022/03/08 08:56:12;;;;;;;5.55;4.07;;;;;;;;;;4991872;28;20115;-77
2022/03/08 08:58:39;;;;;;;5.15;4.10;;;;;;;;;;4991317;28;20050;-75
2022/03/08 09:01:07;;;;;;;4.30;3.72;;;;;;;;;;4992885;28;20144;-75
2022/03/08 09:03:36;;;;;;;6.15;4.38;;;;;;;;;;4991171;28;20478;-77
2022/03/08 09:06:04;;;;;;;8.27;4.45;;;;;;;;;;4993166;28;20121;-71
2022/03/08 09:08:33;;;;;;;7.68;5.15;;;;;;;;;;4992711;28;20084;-73
2022/03/08 09:11:01;;;;;;;8.02;5.00;;;;;;;;;;4992413;28;20106;-78
2022/03/08 09:13:30;;;;;;;6.70;4.28;;;;;;;;;;5007808;28;20045;-80
2022/03/08 09:15:57;;;;;;;9.50;5.53;;;;;;;;;;4992885;28;20048;-73
2022/03/08 09:18:25;;;;;;;10.52;5.88;;;;;;;;;;4992292;28;20053;-70
2022/03/08 09:20:53;;;;;;;8.70;5.10;;;;;;;;;;4992551;28;20125;-70
2022/03/08 09:23:22;;;;;;;8.13;4.80;;;;;;;;;;4993021;28;20034;-70
2022/03/08 09:25:49;;;;;;;9.88;5.43;;;;;;;;;;4996160;28;20517;-76
2022/03/08 09:28:17;;;;;;;7.88;4.80;;;;;;;;;;4995357;28;20117;-70
2022/03/08 09:30:46;;;;;;;3.75;3.42;;;;;;;;;;4993211;28;20039;-75
2022/03/08 09:33:14;;;;;;;5.68;4.55;;;;;;;;;;4995536;28;20046;-71
2022/03/08 09:35:45;;;;;;;4.90;3.45;;;;;;;;;;4993469;28;20458;-72
2022/03/08 09:38:13;;;;;;;5.00;3.78;;;;;;;;;;4996194;28;20132;-73
2022/03/08 09:40:41;;;;;;;6.28;4.38;;;;;;;;;;4995852;28;20121;-75
2022/03/08 09:43:08;;;;;;;6.65;3.80;;;;;;;;;;4995701;28;20042;-75
2022/03/08 09:45:36;;;;;;;4.40;3.38;;;;;;;;;;4994872;28;20122;-69
2022/03/08 09:48:04;;;;;;;6.40;3.80;;;;;;;;;;5010648;28;20042;-69
2022/03/08 09:50:33;;;;;;;3.90;3.50;;;;;;;;;;4995312;28;20042;-70
2022/03/08 09:53:02;;;;;;;4.03;3.50;;;;;;;;;;4993004;28;20109;-74
2022/03/08 09:55:29;;;;;;;4.32;3.15;;;;;;;;;;4994254;28;20073;-69
2022/03/08 09:57:57;;;;;;;5.43;3.50;;;;;;;;;;4995368;28;20042;-71
2022/03/08 10:00:25;;;;;;;3.38;3.08;;;;;;;;;;4995171;28;20038;-70
2022/03/08 10:02:54;;;;;;;3.63;3.25;;;;;;;;;;4995423;28;20498;-70
2022/03/08 10:05:43;;;;;;;4.88;3.60;;;;;;;;;;4992804;28;20093;-72
2022/03/08 10:08:13;;;;;;;6.25;3.78;;;;;;;;;;4993971;28;20030;-72
2022/03/08 10:10:51;;;;;;;5.15;3.38;;;;;;;;;;4990868;28;20045;-73
2022/03/08 10:13:22;;;;;;;4.20;3.50;;;;;;;;;;4991509;28;20114;-73
2022/03/08 10:16:06;;;;;;;5.53;3.65;;;;;;;;;;4995118;28;20048;-74
2022/03/08 10:18:35;;;;;;;8.40;3.50;;;;;;;;;;4994207;28;20053;-75
2022/03/08 10:21:03;;;;;;;4.45;3.28;;;;;;;;;;4991362;28;20040;-75
2022/03/08 10:23:40;;;;;;;5.43;3.67;;;;;;;;;;4993571;28;20481;-77
2022/03/08 10:26:11;;;;;;;5.60;3.58;;;;;;;;;;4993057;28;20042;-71
2022/03/08 10:28:49;;;;;;;5.03;3.20;;;;;;;;;;5009587;28;20374;-73
2022/03/08 10:31:17;;;;;;;4.90;3.30;;;;;;;;;;4993587;28;20137;-74
2022/03/08 10:33:45;;;;;;;4.90;3.47;;;;;;;;;;4995153;28;20061;-72
2022/03/08 10:36:31;;;;;;;7.22;3.75;;;;;;;;;;4994490;28;20410;-72
2022/03/08 10:39:25;;;;;;;6.75;4.00;;;;;;;;;;4995223;28;20070;-75
2022/03/08 10:41:54;;;;;;;5.35;4.00;;;;;;;;;;4992152;28;20451;-75
2022/03/08 10:44:50;;;;;;;5.60;4.20;;;;;;;;;;4989447;28;20039;-77
2022/03/08 10:47:18;;;;;;;8.85;4.20;;;;;;;;;;4966919;28;20145;-73
2022/03/08 10:49:55;;;;;;;5.85;3.78;;;;;;;;;;4977266;28;20035;-73
2022/03/08 10:52:42;;;;;;;7.88;3.95;;;;;;;;;;4994382;28;20042;-78
2022/03/08 10:55:10;;;;;;;6.15;3.47;;;;;;;;;;4993399;28;20046;-78
2022/03/08 10:57:39;;;;;;;3.92;3.28;;;;;;;;;;4993487;28;20042;-75
2022/03/08 11:00:17;;;;;;;4.75;3.50;;;;;;;;;;4992549;28;20046;-72
2022/03/08 11:02:58;;;;;;;5.50;3.60;;;;;;;;;;4994450;28;20042;-71
2022/03/08 11:05:28;;;;;;;5.60;3.47;;;;;;;;;;4994658;28;20125;-74
2022/03/08 11:07:57;;;;;;;4.45;3.50;;;;;;;;;;4994803;28;20042;-77
2022/03/08 11:10:26;;;;;;;5.40;3.47;;;;;;;;;;4994054;28;20042;-72
2022/03/08 11:12:54;;;;;;;5.28;3.70;;;;;;;;;;5009325;28;20047;-72
2022/03/08 11:15:23;;;;;;;4.40;3.40;;;;;;;;;;4994593;28;20046;-79
2022/03/08 11:17:52;;;;;;;5.88;3.78;;;;;;;;;;4994772;28;20130;-74
2022/03/08 11:20:22;;;;;;;4.15;3.75;;;;;;;;;;4995013;28;20050;-78
2022/03/08 11:22:55;;;;;;;5.60;3.85;;;;;;;;;;4977179;28;20046;-75
2022/03/08 11:25:24;;;;;;;7.10;3.78;;;;;;;;;;4994379;28;20117;-74
2022/03/08 11:28:13;;;;;;;4.22;3.78;;;;;;;;;;4993524;28;20043;-78
2022/03/08 11:30:51;;;;;;;4.85;3.85;;;;;;;;;;4994291;28;20045;-77
2022/03/08 11:33:33;;;;;;;7.88;4.05;;;;;;;;;;4994467;28;20038;-74
2022/03/08 11:36:05;;;;;;;4.55;3.85;;;;;;;;;;4994357;28;20081;-73
2022/03/08 11:38:33;;;;;;;4.78;3.75;;;;;;;;;;4994549;28;20065;-74
2022/03/08 11:41:01;;;;;;;4.28;3.50;;;;;;;;;;4994363;28;20038;-75
2022/03/08 11:43:43;;;;;;;4.53;3.92;;;;;;;;;;4994350;28;20064;-72
2022/03/08 11:46:11;;;;;;;6.38;4.38;;;;;;;;;;4992537;28;20042;-74
2022/03/08 11:48:56;;;;;;;5.07;4.13;;;;;;;;;;4993654;28;20096;-75
2022/03/08 11:51:26;;;;;;;4.63;3.30;;;;;;;;;;4993879;28;20046;-72
2022/03/08 11:54:25;;;;;;;7.47;3.60;;;;;;;;;;4993684;28;20464;-74
2022/03/08 11:56:54;;;;;;;7.55;4.20;;;;;;;;;;4992495;28;20133;-78
2022/03/08 11:59:22;;;;;;;3.58;3.25;;;;;;;;;;4993930;28;20034;-72
2022/03/08 12:01:54;;;;;;;3.92;3.40;;;;;;;;;;4993897;28;20389;-73
2022/03/08 12:04:21;;;;;;;4.70;3.67;;;;;;;;;;4992580;28;20049;-78
2022/03/08 12:06:56;;;;;;;3.70;3.40;;;;;;;;;;4993829;28;20042;-72
2022/03/08 12:09:28;;;;;;;7.57;3.53;;;;;;;;;;4993397;28;20042;-76
2022/03/08 12:11:59;;;;;;;7.05;3.70;;;;;;;;;;4993325;28;20058;-72
2022/03/08 12:14:28;;;;;;;4.45;3.40;;;;;;;;;;4994145;28;20105;-79
2022/03/08 12:17:17;;;;;;;3.72;3.42;;;;;;;;;;5008456;28;20564;-74
2022/03/08 12:19:54;;;;;;;5.03;3.65;;;;;;;;;;4995832;28;20468;-72
2022/03/08 12:22:23;;;;;;;7.20;3.90;;;;;;;;;;5012879;28;20124;-75
2022/03/08 12:24:59;;;;;;;4.47;3.72;;;;;;;;;;4995347;28;20042;-73
2022/03/08 12:27:46;;;;;;;4.78;3.53;;;;;;;;;;4995466;28;20093;-72
2022/03/08 12:30:17;;;;;;;6.20;3.75;;;;;;;;;;5013027;28;20046;-74
2022/03/08 12:32:44;;;;;;;5.50;4.05;;;;;;;;;;4995198;28;20048;-72
2022/03/08 12:35:22;;;;;;;4.63;3.90;;;;;;;;;;5012641;28;20053;-75
2022/03/08 12:37:58;;;;;;;7.57;4.40;;;;;;;;;;5012870;28;20056;-75
2022/03/08 12:40:27;;;;;;;7.55;3.85;;;;;;;;;;5012811;28;20095;-74
2022/03/08 12:43:06;;;;;;;5.22;3.63;;;;;;;;;;5013118;28;20042;-72
2022/03/08 12:45:43;;;;;;;4.85;3.80;;;;;;;;;;5010631;28;20133;-75
2022/03/08 12:48:14;;;;;;;4.30;3.75;;;;;;;;;;5011547;28;20040;-77
2022/03/08 12:50:46;;;;;;;4.70;3.80;;;;;;;;;;4994957;28;20041;-73
2022/03/08 12:53:18;;;;;;;4.20;3.65;;;;;;;;;;4991599;28;20503;-71
2022/03/08 12:55:51;;;;;;;6.30;3.63;;;;;;;;;;5011705;28;20046;-73
2022/03/08 12:58:19;;;;;;;;;;;;;;;;;;4994745;28;20544;-73
2022/03/08 13:00:56;;;;;;;4.22;3.22;;;;;;;;;;5015878;28;20023;-71
2022/03/08 13:03:26;;;;;;;11.48;3.65;;;;;;;;;;5015819;28;20539;-71
2022/03/08 13:05:55;;;;;;;4.75;3.50;;;;;;;;;;5022453;28;20045;-73
2022/03/08 13:08:25;;;;;;;5.95;3.55;;;;;;;;;;5015433;28;20090;-73
2022/03/08 13:10:56;;;;;;;3.97;3.30;;;;;;;;;;5035150;28;20038;-74
2022/03/08 13:13:44;;;;;;;5.35;3.50;;;;;;;;;;5035975;28;20045;-74
2022/03/08 13:16:15;;;;;;;5.85;2.92;;;;;;;;;;5015358;28;20376;-71
2022/03/08 13:18:43;;;;;;;8.10;3.42;;;;;;;;;;4993968;28;20053;-74
2022/03/08 13:21:14;;;;;;;3.63;3.20;;;;;;;;;;4984519;28;20077;-79
2022/03/08 13:23:45;;;;;;;4.95;3.47;;;;;;;;;;4986511;28;20122;-71
2022/03/08 13:29:17;;;;;;;7.63;3.63;;;;;;;;;;4981002;28;20062;-72
2022/03/08 13:31:45;;;;;;;4.35;3.92;;;;;;;;;;4980113;28;20054;-72
2022/03/08 13:34:13;;;;;;;6.47;3.88;;;;;;;;;;4985226;28;20109;-72
2022/03/08 13:36:41;;;;;;;3.83;3.40;;;;;;;;;;4961444;28;20409;-74
2022/03/08 13:39:14;;;;;;;5.55;4.28;;;;;;;;;;4979202;28;20410;-78
2022/03/08 13:41:41;;;;;;;5.75;3.40;;;;;;;;;;4979169;28;20378;-74
2022/03/08 13:44:13;;;;;;;5.53;3.63;;;;;;;;;;4965547;28;20038;-73
2022/03/08 13:46:42;;;;;;;6.13;3.40;;;;;;;;;;4989547;28;20049;-72
2022/03/08 13:49:11;;;;;;;6.93;3.70;;;;;;;;;;4993545;28;20092;-73
2022/03/08 13:51:44;;;;;;;6.05;3.47;;;;;;;;;;4962330;28;20089;-72
2022/03/08 13:54:13;;;;;;;5.07;3.33;;;;;;;;;;4993930;28;20065;-72
2022/03/08 13:56:45;;;;;;;4.10;3.70;;;;;;;;;;4991067;28;20057;-74
2022/03/08 13:59:30;;;;;;;4.57;3.70;;;;;;;;;;4993938;28;20050;-74
2022/03/08 14:02:01;;;;;;;5.65;3.55;;;;;;;;;;4995247;28;20048;-73
2022/03/08 14:04:29;;;;;;;4.28;3.88;;;;;;;;;;4975289;28;20707;-79
2022/03/08 14:06:57;;;;;;;3.92;3.38;;;;;;;;;;4997062;28;20038;-75
2022/03/08 14:09:24;;;;;;;4.60;3.40;;;;;;;;;;4994455;28;20049;-75
2022/03/08 14:11:57;;;;;;;5.18;4.15;;;;;;;;;;4990528;28;20451;-73
2022/03/08 14:14:26;;;;;;;7.60;4.30;;;;;;;;;;4994267;28;20042;-74
2022/03/08 14:16:53;;;;;;;8.40;5.47;;;;;;;;;;4992937;28;20061;-74
2022/03/08 14:19:25;;;;;;;11.98;4.78;;;;;;;;;;5005272;28;20073;-75
2022/03/08 14:21:53;;;;;;;6.72;4.47;;;;;;;;;;5014825;28;20575;-73
2022/03/08 14:24:24;;;;;;;7.05;4.25;;;;;;;;;;5014495;28;20088;-73
2022/03/08 14:26:58;;;;;;;5.45;4.45;;;;;;;;;;5004268;28;20042;-72
2022/03/08 14:29:26;;;;;;;5.63;4.20;;;;;;;;;;5026991;28;20137;-74
2022/03/08 14:31:54;;;;;;;6.03;4.07;;;;;;;;;;5022365;28;20037;-72
2022/03/08 14:34:23;;;;;;;7.78;4.93;;;;;;;;;;5015538;28;20477;-73
2022/03/08 14:36:53;;;;;;;7.70;5.20;;;;;;;;;;4994639;28;20492;-72
2022/03/08 14:39:31;;;;;;;13.32;7.13;;;;;;;;;;5013646;28;20048;-72
2022/03/08 14:42:00;;;;;;;9.02;5.88;;;;;;;;;;5019325;28;20034;-71
2022/03/08 14:44:32;;;;;;;6.22;4.10;;;;;;;;;;4995849;28;20041;-73
2022/03/08 14:47:01;;;;;;;11.05;4.15;;;;;;;;;;5027633;28;20045;-73
2022/03/08 14:49:29;;;;;;;6.03;4.10;;;;;;;;;;5016085;28;20037;-72
2022/03/08 14:51:57;;;;;;;6.30;3.97;;;;;;;;;;4995318;28;20037;-73
2022/03/08 14:54:25;;;;;;;11.43;4.80;;;;;;;;;;5020541;28;20135;-73
2022/03/08 14:56:53;;;;;;;5.97;4.22;;;;;;;;;;4999414;28;20504;-72
2022/03/08 14:59:21;;;;;;;7.78;4.57;;;;;;;;;;5015292;28;20051;-73